sensor_id;sensor_type;location;lat;lon;timestamp;pressure;altitude;pressure_sealevel;temperature;humidity
55671;BME280;41551;47.500;8.408;2022-08-07T00:00:44;96673.50;;;15.36;100.00
55671;BME280;41551;47.500;8.408;2022-08-07T00:03:11;96680.16;;;15.33;100.00
55671;BME280;41551;47.500;8.408;2022-08-07T00:05:37;96669.53;;;15.33;100.00
55671;BME280;41551;47.500;8.408;2022-08-07T00:08:06;96658.63;;;15.30;100.00
55671;BME280;41551;47.500;8.408;2022-08-07T00:10:32;96659.41;;;15.30;100.00
55671;BME280;41551;47.500;8.408;2022-08-07T00:13:01;96661.56;;;15.28;100.00
55671;BME280;41551;47.500;8.408;2022-08-07T00:15:29;96660.25;;;15.31;100.00
55671;BME280;41551;47.500;8.408;2022-08-07T00:17:56;96654.91;;;15.31;100.00
55671;BME280;41551;47.500;8.408;2022-08-07T00:20:23;96649.59;;;15.31;100.00
55671;BME280;41551;47.500;8.408;2022-08-07T00:22:50;96645.88;;;15.32;100.00
55671;BME280;41551;47.500;8.408;2022-08-07T00:25:18;96640.28;;;15.28;100.00
55671;BME280;41551;47.500;8.408;2022-08-07T00:27:45;96643.22;;;15.21;100.00
55671;BME280;41551;47.500;8.408;2022-08-07T00:30:12;96635.25;;;15.21;100.00
55671;BME280;41551;47.500;8.408;2022-08-07T00:32:39;96633.91;;;15.24;100.00
55671;BME280;41551;47.500;8.408;2022-08-07T00:35:06;96629.69;;;15.23;100.00
55671;BME280;41551;47.500;8.408;2022-08-07T00:37:33;96627.03;;;15.23;100.00
55671;BME280;41551;47.500;8.408;2022-08-07T00:40:00;96631.53;;;15.22;100.00
55671;BME280;41551;47.500;8.408;2022-08-07T00:42:28;96634.44;;;15.21;100.00
55671;BME280;41551;47.500;8.408;2022-08-07T00:44:55;96636.31;;;15.25;100.00
55671;BME280;41551;47.500;8.408;2022-08-07T00:47:21;96634.44;;;15.21;100.00
55671;BME280;41551;47.500;8.408;2022-08-07T00:49:48;96640.03;;;15.24;100.00
55671;BME280;41551;47.500;8.408;2022-08-07T00:52:15;96622.50;;;15.23;100.00
55671;BME280;41551;47.500;8.408;2022-08-07T00:54:43;96632.03;;;15.19;100.00
55671;BME280;41551;47.500;8.408;2022-08-07T00:57:11;96623.00;;;15.25;100.00
55671;BME280;41551;47.500;8.408;2022-08-07T00:59:39;96629.38;;;15.19;100.00
55671;BME280;41551;47.500;8.408;2022-08-07T01:02:07;96618.25;;;15.17;100.00
55671;BME280;41551;47.500;8.408;2022-08-07T01:04:34;96618.78;;;15.24;100.00
55671;BME280;41551;47.500;8.408;2022-08-07T01:07:01;96611.34;;;15.21;100.00
55671;BME280;41551;47.500;8.408;2022-08-07T01:09:28;96610.53;;;15.21;100.00
55671;BME280;41551;47.500;8.408;2022-08-07T01:11:56;96612.66;;;15.24;100.00
55671;BME280;41551;47.500;8.408;2022-08-07T01:14:24;96613.19;;;15.21;100.00
55671;BME280;41551;47.500;8.408;2022-08-07T01:16:52;96615.06;;;15.20;100.00
55671;BME280;41551;47.500;8.408;2022-08-07T01:19:20;96603.63;;;15.25;100.00
55671;BME280;41551;47.500;8.408;2022-08-07T01:21:50;96614.00;;;15.21;100.00
55671;BME280;41551;47.500;8.408;2022-08-07T01:24:18;96602.03;;;15.24;100.00
55671;BME280;41551;47.500;8.408;2022-08-07T01:26:45;96614.00;;;15.21;100.00
55671;BME280;41551;47.500;8.408;2022-08-07T01:29:13;96600.44;;;15.23;100.00
55671;BME280;41551;47.500;8.408;2022-08-07T01:31:40;96600.19;;;15.24;100.00
55671;BME280;41551;47.500;8.408;2022-08-07T01:34:06;96589.56;;;15.24;100.00
55671;BME280;41551;47.500;8.408;2022-08-07T01:36:33;96594.06;;;15.29;100.00
55671;BME280;41551;47.500;8.408;2022-08-07T01:39:02;96581.56;;;15.35;100.00
55671;BME280;41551;47.500;8.408;2022-08-07T01:41:29;96583.69;;;15.33;100.00
55671;BME280;41551;47.500;8.408;2022-08-07T01:43:56;96580.50;;;15.36;100.00
55671;BME280;41551;47.500;8.408;2022-08-07T01:46:24;96583.16;;;15.36;100.00
55671;BME280;41551;47.500;8.408;2022-08-07T01:48:51;96577.31;;;15.34;100.00
55671;BME280;41551;47.500;8.408;2022-08-07T01:51:20;96582.63;;;15.34;100.00
55671;BME280;41551;47.500;8.408;2022-08-07T01:53:50;96580.22;;;15.37;100.00
55671;BME280;41551;47.500;8.408;2022-08-07T01:56:23;96583.16;;;15.31;100.00
55671;BME280;41551;47.500;8.408;2022-08-07T01:58:53;96585.84;;;15.31;100.00
55671;BME280;41551;47.500;8.408;2022-08-07T02:01:26;96590.59;;;15.34;100.00
55671;BME280;41551;47.500;8.408;2022-08-07T02:03:57;96592.19;;;15.40;100.00
55671;BME280;41551;47.500;8.408;2022-08-07T02:06:26;96594.59;;;15.31;100.00
55671;BME280;41551;47.500;8.408;2022-08-07T02:08:54;96591.16;;;15.31;100.00
55671;BME280;41551;47.500;8.408;2022-08-07T02:11:25;96587.66;;;15.30;100.00
55671;BME280;41551;47.500;8.408;2022-08-07T02:13:53;96586.34;;;15.33;100.00
55671;BME280;41551;47.500;8.408;2022-08-07T02:16:21;96592.97;;;15.30;100.00
55671;BME280;41551;47.500;8.408;2022-08-07T02:18:49;96586.91;;;15.24;100.00
55671;BME280;41551;47.500;8.408;2022-08-07T02:21:17;96591.94;;;15.26;100.00
55671;BME280;41551;47.500;8.408;2022-08-07T02:23:45;96593.00;;;15.25;100.00
55671;BME280;41551;47.500;8.408;2022-08-07T02:26:13;96585.03;;;15.25;100.00
55671;BME280;41551;47.500;8.408;2022-08-07T02:28:42;96596.72;;;15.24;100.00
55671;BME280;41551;47.500;8.408;2022-08-07T02:31:10;96590.06;;;15.26;100.00
55671;BME280;41551;47.500;8.408;2022-08-07T02:33:38;96588.50;;;15.31;100.00
55671;BME280;41551;47.500;8.408;2022-08-07T02:36:07;96590.59;;;15.23;100.00
55671;BME280;41551;47.500;8.408;2022-08-07T02:38:36;96586.09;;;15.24;100.00
55671;BME280;41551;47.500;8.408;2022-08-07T02:41:04;96582.13;;;15.21;100.00
55671;BME280;41551;47.500;8.408;2022-08-07T02:43:34;96583.44;;;15.24;100.00
55671;BME280;41551;47.500;8.408;2022-08-07T02:46:03;96577.84;;;15.25;100.00
55671;BME280;41551;47.500;8.408;2022-08-07T02:48:31;96574.38;;;15.30;100.00
55671;BME280;41551;47.500;8.408;2022-08-07T02:51:02;96577.56;;;15.27;100.00
55671;BME280;41551;47.500;8.408;2022-08-07T02:53:32;96572.00;;;15.23;100.00
55671;BME280;41551;47.500;8.408;2022-08-07T02:56:01;96573.06;;;15.22;100.00
55671;BME280;41551;47.500;8.408;2022-08-07T02:58:30;96574.16;;;15.21;100.00
55671;BME280;41551;47.500;8.408;2022-08-07T03:00:58;96571.22;;;15.13;100.00
55671;BME280;41551;47.500;8.408;2022-08-07T03:03:29;96566.97;;;15.12;100.00
55671;BME280;41551;47.500;8.408;2022-08-07T03:05:57;96556.34;;;15.12;100.00
55671;BME280;41551;47.500;8.408;2022-08-07T03:08:25;96562.19;;;15.08;100.00
55671;BME280;41551;47.500;8.408;2022-08-07T03:10:52;96557.66;;;15.04;100.00
55671;BME280;41551;47.500;8.408;2022-08-07T03:13:20;96555.53;;;15.11;100.00
55671;BME280;41551;47.500;8.408;2022-08-07T03:15:47;96562.97;;;15.09;100.00
55671;BME280;41551;47.500;8.408;2022-08-07T03:18:16;96566.16;;;15.11;100.00
55671;BME280;41551;47.500;8.408;2022-08-07T03:20:45;96558.72;;;15.13;100.00
55671;BME280;41551;47.500;8.408;2022-08-07T03:23:12;96563.22;;;15.18;100.00
55671;BME280;41551;47.500;8.408;2022-08-07T03:25:40;96562.97;;;15.19;100.00
55671;BME280;41551;47.500;8.408;2022-08-07T03:28:10;96569.34;;;15.18;100.00
55671;BME280;41551;47.500;8.408;2022-08-07T03:30:39;96567.22;;;15.20;100.00
55671;BME280;41551;47.500;8.408;2022-08-07T03:33:07;96573.88;;;15.23;100.00
55671;BME280;41551;47.500;8.408;2022-08-07T03:35:35;96566.97;;;15.22;100.00
55671;BME280;41551;47.500;8.408;2022-08-07T03:38:07;96560.84;;;15.21;100.00
55671;BME280;41551;47.500;8.408;2022-08-07T03:40:34;96568.00;;;15.21;100.00
55671;BME280;41551;47.500;8.408;2022-08-07T03:43:02;96564.31;;;15.22;100.00
55671;BME280;41551;47.500;8.408;2022-08-07T03:45:30;96564.03;;;15.18;100.00
55671;BME280;41551;47.500;8.408;2022-08-07T03:47:58;96562.44;;;15.22;100.00
55671;BME280;41551;47.500;8.408;2022-08-07T03:50:25;96557.94;;;15.23;100.00
55671;BME280;41551;47.500;8.408;2022-08-07T03:52:52;96551.03;;;15.22;100.00
55671;BME280;41551;47.500;8.408;2022-08-07T03:55:23;96557.66;;;15.19;100.00
55671;BME280;41551;47.500;8.408;2022-08-07T03:57:50;96557.13;;;15.22;100.00
55671;BME280;41551;47.500;8.408;2022-08-07T04:00:18;96564.03;;;15.23;100.00
55671;BME280;41551;47.500;8.408;2022-08-07T04:02:45;96567.75;;;15.22;100.00
55671;BME280;41551;47.500;8.408;2022-08-07T04:05:12;96564.31;;;15.22;100.00
55671;BME280;41551;47.500;8.408;2022-08-07T04:07:43;96572.28;;;15.22;100.00
55671;BME280;41551;47.500;8.408;2022-08-07T04:10:10;96566.69;;;15.18;100.00
55671;BME280;41551;47.500;8.408;2022-08-07T04:12:38;96574.41;;;15.20;100.00
55671;BME280;41551;47.500;8.408;2022-08-07T04:15:07;96567.22;;;15.15;100.00
55671;BME280;41551;47.500;8.408;2022-08-07T04:17:34;96572.00;;;15.13;100.00
55671;BME280;41551;47.500;8.408;2022-08-07T04:20:01;96572.78;;;15.14;100.00
55671;BME280;41551;47.500;8.408;2022-08-07T04:22:28;96572.53;;;15.10;100.00
55671;BME280;41551;47.500;8.408;2022-08-07T04:24:55;96568.03;;;15.05;100.00
55671;BME280;41551;47.500;8.408;2022-08-07T04:27:22;96574.13;;;15.06;100.00
55671;BME280;41551;47.500;8.408;2022-08-07T04:29:51;96587.41;;;15.01;100.00
55671;BME280;41551;47.500;8.408;2022-08-07T04:32:17;96588.47;;;14.95;100.00
55671;BME280;41551;47.500;8.408;2022-08-07T04:34:44;96585.81;;;14.95;100.00
55671;BME280;41551;47.500;8.408;2022-08-07T04:37:11;96586.34;;;14.97;100.00
55671;BME280;41551;47.500;8.408;2022-08-07T04:39:39;96590.31;;;15.04;100.00
55671;BME280;41551;47.500;8.408;2022-08-07T04:42:06;96594.84;;;15.09;100.00
55671;BME280;41551;47.500;8.408;2022-08-07T04:44:34;96597.75;;;15.07;100.00
55671;BME280;41551;47.500;8.408;2022-08-07T04:47:07;96598.31;;;15.15;100.00
55671;BME280;41551;47.500;8.408;2022-08-07T04:49:41;96602.56;;;15.21;100.00
55671;BME280;41551;47.500;8.408;2022-08-07T04:52:16;96595.94;;;15.23;100.00
55671;BME280;41551;47.500;8.408;2022-08-07T04:54:54;96594.84;;;15.40;100.00
55671;BME280;41551;47.500;8.408;2022-08-07T04:57:26;96598.03;;;15.42;100.00
55671;BME280;41551;47.500;8.408;2022-08-07T04:59:57;96598.03;;;15.52;100.00
55671;BME280;41551;47.500;8.408;2022-08-07T05:02:29;96598.53;;;15.64;100.00
55671;BME280;41551;47.500;8.408;2022-08-07T05:05:01;96588.69;;;15.65;100.00
55671;BME280;41551;47.500;8.408;2022-08-07T05:07:35;96594.81;;;15.81;100.00
55671;BME280;41551;47.500;8.408;2022-08-07T05:10:07;96595.63;;;15.87;100.00
55671;BME280;41551;47.500;8.408;2022-08-07T05:12:39;96603.81;;;15.95;100.00
55671;BME280;41551;47.500;8.408;2022-08-07T05:15:10;96596.38;;;15.97;100.00
55671;BME280;41551;47.500;8.408;2022-08-07T05:17:45;96597.13;;;16.03;100.00
55671;BME280;41551;47.500;8.408;2022-08-07T05:20:15;96600.03;;;16.12;100.00
55671;BME280;41551;47.500;8.408;2022-08-07T05:22:45;96598.72;;;16.14;100.00
55671;BME280;41551;47.500;8.408;2022-08-07T05:25:14;96608.81;;;16.17;100.00
55671;BME280;41551;47.500;8.408;2022-08-07T05:27:41;96598.94;;;16.23;100.00
55671;BME280;41551;47.500;8.408;2022-08-07T05:30:10;96608.78;;;16.28;100.00
55671;BME280;41551;47.500;8.408;2022-08-07T05:32:38;96606.91;;;16.28;100.00
55671;BME280;41551;47.500;8.408;2022-08-07T05:35:09;96605.03;;;16.29;100.00
55671;BME280;41551;47.500;8.408;2022-08-07T05:37:37;96601.53;;;16.33;100.00
55671;BME280;41551;47.500;8.408;2022-08-07T05:40:06;96606.88;;;16.39;100.00
55671;BME280;41551;47.500;8.408;2022-08-07T05:42:34;96606.59;;;16.40;100.00
55671;BME280;41551;47.500;8.408;2022-08-07T05:45:03;96604.78;;;16.25;100.00
55671;BME280;41551;47.500;8.408;2022-08-07T05:47:31;96604.25;;;16.28;100.00
55671;BME280;41551;47.500;8.408;2022-08-07T05:49:59;96609.59;;;16.18;100.00
55671;BME280;41551;47.500;8.408;2022-08-07T05:52:28;96605.06;;;16.24;100.00
55671;BME280;41551;47.500;8.408;2022-08-07T05:54:55;96612.19;;;16.33;100.00
55671;BME280;41551;47.500;8.408;2022-08-07T05:57:23;96611.91;;;16.35;100.00
55671;BME280;41551;47.500;8.408;2022-08-07T05:59:50;96609.28;;;16.30;100.00
55671;BME280;41551;47.500;8.408;2022-08-07T06:02:19;96622.91;;;16.23;100.00
55671;BME280;41551;47.500;8.408;2022-08-07T06:04:51;96617.03;;;16.26;100.00
55671;BME280;41551;47.500;8.408;2022-08-07T06:07:19;96622.84;;;16.33;100.00
55671;BME280;41551;47.500;8.408;2022-08-07T06:09:47;96618.84;;;16.36;100.00
55671;BME280;41551;47.500;8.408;2022-08-07T06:12:14;96631.88;;;16.38;100.00
55671;BME280;41551;47.500;8.408;2022-08-07T06:14:41;96632.38;;;16.45;100.00
55671;BME280;41551;47.500;8.408;2022-08-07T06:17:09;96640.06;;;16.51;100.00
55671;BME280;41551;47.500;8.408;2022-08-07T06:19:38;96636.13;;;16.49;100.00
55671;BME280;41551;47.500;8.408;2022-08-07T06:22:06;96633.47;;;16.39;100.00
55671;BME280;41551;47.500;8.408;2022-08-07T06:24:33;96629.72;;;16.45;100.00
55671;BME280;41551;47.500;8.408;2022-08-07T06:27:02;96628.13;;;16.44;100.00
55671;BME280;41551;47.500;8.408;2022-08-07T06:29:29;96635.59;;;16.37;100.00
55671;BME280;41551;47.500;8.408;2022-08-07T06:31:56;96636.63;;;16.51;100.00
55671;BME280;41551;47.500;8.408;2022-08-07T06:34:23;96627.53;;;16.57;100.00
55671;BME280;41551;47.500;8.408;2022-08-07T06:36:51;96622.22;;;16.57;100.00
55671;BME280;41551;47.500;8.408;2022-08-07T06:39:18;96628.56;;;16.66;100.00
55671;BME280;41551;47.500;8.408;2022-08-07T06:41:47;96619.22;;;16.69;100.00
55671;BME280;41551;47.500;8.408;2022-08-07T06:44:17;96620.50;;;16.77;100.00
55671;BME280;41551;47.500;8.408;2022-08-07T06:46:45;96625.25;;;16.90;100.00
55671;BME280;41551;47.500;8.408;2022-08-07T06:49:13;96634.28;;;16.94;100.00
55671;BME280;41551;47.500;8.408;2022-08-07T06:51:42;96626.22;;;17.04;100.00
55671;BME280;41551;47.500;8.408;2022-08-07T06:54:13;96626.78;;;17.01;100.00
55671;BME280;41551;47.500;8.408;2022-08-07T06:56:42;96626.53;;;16.98;100.00
55671;BME280;41551;47.500;8.408;2022-08-07T06:59:14;96615.63;;;16.99;100.00
55671;BME280;41551;47.500;8.408;2022-08-07T07:01:46;96613.28;;;16.82;100.00
55671;BME280;41551;47.500;8.408;2022-08-07T07:04:14;96610.97;;;16.70;100.00
55671;BME280;41551;47.500;8.408;2022-08-07T07:06:41;96621.34;;;16.72;100.00
55671;BME280;41551;47.500;8.408;2022-08-07T07:09:16;96621.56;;;16.76;100.00
55671;BME280;41551;47.500;8.408;2022-08-07T07:11:49;96618.34;;;16.89;100.00
55671;BME280;41551;47.500;8.408;2022-08-07T07:14:19;96619.91;;;16.85;100.00
55671;BME280;41551;47.500;8.408;2022-08-07T07:16:50;96622.31;;;16.92;100.00
55671;BME280;41551;47.500;8.408;2022-08-07T07:19:20;96619.22;;;17.14;100.00
55671;BME280;41551;47.500;8.408;2022-08-07T07:21:48;96617.59;;;17.18;100.00
55671;BME280;41551;47.500;8.408;2022-08-07T07:24:18;96620.22;;;17.23;100.00
55671;BME280;41551;47.500;8.408;2022-08-07T07:26:46;96613.34;;;17.17;100.00
55671;BME280;41551;47.500;8.408;2022-08-07T07:29:15;96617.53;;;17.28;100.00
55671;BME280;41551;47.500;8.408;2022-08-07T07:31:46;96619.56;;;17.42;100.00
55671;BME280;41551;47.500;8.408;2022-08-07T07:34:23;96625.06;;;17.50;100.00
55671;BME280;41551;47.500;8.408;2022-08-07T07:36:52;96629.34;;;17.51;100.00
55671;BME280;41551;47.500;8.408;2022-08-07T07:39:20;96626.94;;;17.50;100.00
55671;BME280;41551;47.500;8.408;2022-08-07T07:41:49;96621.63;;;17.50;100.00
55671;BME280;41551;47.500;8.408;2022-08-07T07:44:18;96621.19;;;17.37;100.00
55671;BME280;41551;47.500;8.408;2022-08-07T07:46:48;96618.59;;;17.27;100.00
55671;BME280;41551;47.500;8.408;2022-08-07T07:49:18;96624.09;;;17.41;100.00
55671;BME280;41551;47.500;8.408;2022-08-07T07:51:47;96622.19;;;17.47;100.00
55671;BME280;41551;47.500;8.408;2022-08-07T07:54:16;96626.00;;;17.35;100.00
55671;BME280;41551;47.500;8.408;2022-08-07T07:56:44;96625.13;;;17.45;100.00
55671;BME280;41551;47.500;8.408;2022-08-07T07:59:12;96633.53;;;17.57;100.00
55671;BME280;41551;47.500;8.408;2022-08-07T08:01:42;96624.13;;;17.65;100.00
55671;BME280;41551;47.500;8.408;2022-08-07T08:04:11;96625.69;;;17.71;100.00
55671;BME280;41551;47.500;8.408;2022-08-07T08:06:42;96626.78;;;17.70;100.00
55671;BME280;41551;47.500;8.408;2022-08-07T08:09:10;96629.47;;;17.65;100.00
55671;BME280;41551;47.500;8.408;2022-08-07T08:11:38;96626.09;;;17.84;100.00
55671;BME280;41551;47.500;8.408;2022-08-07T08:14:05;96618.63;;;17.86;100.00
55671;BME280;41551;47.500;8.408;2022-08-07T08:16:34;96629.28;;;17.86;100.00
55671;BME280;41551;47.500;8.408;2022-08-07T08:19:05;96622.84;;;17.92;100.00
55671;BME280;41551;47.500;8.408;2022-08-07T08:21:33;96625.47;;;17.97;99.80
55671;BME280;41551;47.500;8.408;2022-08-07T08:24:20;96625.72;;;18.01;99.84
55671;BME280;41551;47.500;8.408;2022-08-07T08:27:06;96627.38;;;18.16;99.25
55671;BME280;41551;47.500;8.408;2022-08-07T08:29:39;96626.72;;;18.29;98.42
55671;BME280;41551;47.500;8.408;2022-08-07T08:32:09;96630.91;;;18.35;98.13
55671;BME280;41551;47.500;8.408;2022-08-07T08:34:37;96623.06;;;18.44;95.87
55671;BME280;41551;47.500;8.408;2022-08-07T08:37:07;96628.03;;;18.51;95.60
55671;BME280;41551;47.500;8.408;2022-08-07T08:39:39;96627.34;;;18.64;94.81
55671;BME280;41551;47.500;8.408;2022-08-07T08:42:12;96626.25;;;18.89;93.54
55671;BME280;41551;47.500;8.408;2022-08-07T08:44:49;96631.06;;;19.06;92.61
55671;BME280;41551;47.500;8.408;2022-08-07T08:47:23;96624.72;;;19.21;89.60
55671;BME280;41551;47.500;8.408;2022-08-07T08:49:58;96624.31;;;19.28;89.43
55671;BME280;41551;47.500;8.408;2022-08-07T08:52:32;96620.03;;;19.46;88.62
55671;BME280;41551;47.500;8.408;2022-08-07T08:55:06;96628.09;;;19.74;86.78
55671;BME280;41551;47.500;8.408;2022-08-07T08:57:39;96624.81;;;19.82;85.34
55671;BME280;41551;47.500;8.408;2022-08-07T09:00:08;96632.94;;;19.91;85.16
55671;BME280;41551;47.500;8.408;2022-08-07T09:02:42;96628.09;;;19.93;85.36
55671;BME280;41551;47.500;8.408;2022-08-07T09:05:27;96626.00;;;20.03;84.31
55671;BME280;41551;47.500;8.408;2022-08-07T09:08:01;96630.09;;;20.15;84.69
55671;BME280;41551;47.500;8.408;2022-08-07T09:10:36;96626.00;;;20.17;84.28
55671;BME280;41551;47.500;8.408;2022-08-07T09:13:13;96635.16;;;20.16;83.33
55671;BME280;41551;47.500;8.408;2022-08-07T09:15:50;96634.44;;;20.11;83.37
55671;BME280;41551;47.500;8.408;2022-08-07T09:18:32;96633.44;;;20.06;84.22
55671;BME280;41551;47.500;8.408;2022-08-07T09:21:09;96628.59;;;20.22;82.19
55671;BME280;41551;47.500;8.408;2022-08-07T09:23:46;96632.84;;;20.10;84.09
55671;BME280;41551;47.500;8.408;2022-08-07T09:26:32;96632.78;;;20.29;82.83
55671;BME280;41551;47.500;8.408;2022-08-07T09:29:08;96629.66;;;20.49;81.35
55671;BME280;41551;47.500;8.408;2022-08-07T09:31:44;96635.13;;;20.44;81.00
55671;BME280;41551;47.500;8.408;2022-08-07T09:34:21;96629.47;;;20.59;80.54
55671;BME280;41551;47.500;8.408;2022-08-07T09:36:57;96629.47;;;20.73;79.25
55671;BME280;41551;47.500;8.408;2022-08-07T09:39:43;96637.28;;;20.84;78.72
55671;BME280;41551;47.500;8.408;2022-08-07T09:42:24;96628.50;;;20.92;78.01
55671;BME280;41551;47.500;8.408;2022-08-07T09:45:04;96628.84;;;21.13;76.90
55671;BME280;41551;47.500;8.408;2022-08-07T09:47:38;96636.53;;;21.28;75.97
55671;BME280;41551;47.500;8.408;2022-08-07T09:50:13;96635.50;;;21.38;74.90
55671;BME280;41551;47.500;8.408;2022-08-07T09:52:46;96626.66;;;21.38;74.82
55671;BME280;41551;47.500;8.408;2022-08-07T09:55:16;96626.38;;;21.62;74.50
55671;BME280;41551;47.500;8.408;2022-08-07T10:00:47;96633.50;;;21.67;73.91
55671;BME280;41551;47.500;8.408;2022-08-07T10:03:34;96618.47;;;21.88;72.75
55671;BME280;41551;47.500;8.408;2022-08-07T10:09:33;96623.28;;;22.09;72.20
55671;BME280;41551;47.500;8.408;2022-08-07T10:12:13;96620.16;;;22.24;71.17
55671;BME280;41551;47.500;8.408;2022-08-07T10:15:05;96621.91;;;22.20;71.10
55671;BME280;41551;47.500;8.408;2022-08-07T10:17:58;96610.53;;;22.23;70.56
55671;BME280;41551;47.500;8.408;2022-08-07T10:20:38;96615.16;;;22.31;70.73
55671;BME280;41551;47.500;8.408;2022-08-07T10:23:28;96615.16;;;22.31;69.67
55671;BME280;41551;47.500;8.408;2022-08-07T10:26:05;96619.16;;;22.43;69.51
55671;BME280;41551;47.500;8.408;2022-08-07T10:28:54;96617.41;;;22.38;69.61
55671;BME280;41551;47.500;8.408;2022-08-07T10:31:41;96612.03;;;22.47;69.66
55671;BME280;41551;47.500;8.408;2022-08-07T10:34:26;96597.69;;;22.60;68.28
55671;BME280;41551;47.500;8.408;2022-08-07T10:37:06;96610.19;;;22.65;68.01
55671;BME280;41551;47.500;8.408;2022-08-07T10:39:44;96606.84;;;22.59;68.95
55671;BME280;41551;47.500;8.408;2022-08-07T10:42:24;96608.78;;;22.67;68.50
55671;BME280;41551;47.500;8.408;2022-08-07T10:44:59;96604.66;;;22.70;68.83
55671;BME280;41551;47.500;8.408;2022-08-07T10:47:35;96607.50;;;22.91;67.94
55671;BME280;41551;47.500;8.408;2022-08-07T10:50:09;96606.41;;;22.92;67.69
55671;BME280;41551;47.500;8.408;2022-08-07T10:52:39;96604.03;;;23.08;67.16
55671;BME280;41551;47.500;8.408;2022-08-07T10:55:17;96599.78;;;23.16;66.59
55671;BME280;41551;47.500;8.408;2022-08-07T10:57:49;96597.56;;;23.18;65.12
55671;BME280;41551;47.500;8.408;2022-08-07T11:00:17;96597.56;;;23.18;65.12
55671;BME280;41551;47.500;8.408;2022-08-07T11:02:57;96593.13;;;23.22;64.19
55671;BME280;41551;47.500;8.408;2022-08-07T11:05:34;96599.47;;;23.26;63.99
55671;BME280;41551;47.500;8.408;2022-08-07T11:08:10;96603.28;;;23.25;63.82
55671;BME280;41551;47.500;8.408;2022-08-07T11:10:42;96596.16;;;23.29;64.65
55671;BME280;41551;47.500;8.408;2022-08-07T11:13:19;96596.59;;;23.31;64.66
55671;BME280;41551;47.500;8.408;2022-08-07T11:15:53;96597.69;;;23.39;64.16
55671;BME280;41551;47.500;8.408;2022-08-07T11:18:30;96592.13;;;23.62;63.72
55671;BME280;41551;47.500;8.408;2022-08-07T11:21:05;96584.19;;;23.65;63.48
55671;BME280;41551;47.500;8.408;2022-08-07T11:23:44;96589.22;;;23.75;63.21
55671;BME280;41551;47.500;8.408;2022-08-07T11:26:16;96584.78;;;23.80;63.03
55671;BME280;41551;47.500;8.408;2022-08-07T11:28:50;96580.72;;;23.56;63.93
55671;BME280;41551;47.500;8.408;2022-08-07T11:31:24;96587.25;;;23.29;64.77
55671;BME280;41551;47.500;8.408;2022-08-07T11:33:59;96585.22;;;23.26;65.11
55671;BME280;41551;47.500;8.408;2022-08-07T11:36:46;96583.28;;;23.44;63.94
55671;BME280;41551;47.500;8.408;2022-08-07T11:39:28;96584.72;;;23.41;64.13
55671;BME280;41551;47.500;8.408;2022-08-07T11:42:02;96580.56;;;23.61;63.94
55671;BME280;41551;47.500;8.408;2022-08-07T11:44:39;96573.34;;;23.83;63.66
55671;BME280;41551;47.500;8.408;2022-08-07T11:47:24;96577.03;;;23.87;64.02
55671;BME280;41551;47.500;8.408;2022-08-07T11:50:06;96566.09;;;23.74;63.66
55671;BME280;41551;47.500;8.408;2022-08-07T11:52:50;96574.56;;;23.55;64.08
55671;BME280;41551;47.500;8.408;2022-08-07T11:55:29;96562.56;;;23.35;65.04
55671;BME280;41551;47.500;8.408;2022-08-07T11:58:07;96570.50;;;23.23;65.14
55671;BME280;41551;47.500;8.408;2022-08-07T12:01:01;96572.91;;;23.16;66.02
55671;BME280;41551;47.500;8.408;2022-08-07T12:03:45;96571.59;;;23.04;66.41
55671;BME280;41551;47.500;8.408;2022-08-07T12:06:33;96565.44;;;23.04;66.36
55671;BME280;41551;47.500;8.408;2022-08-07T12:09:08;96563.06;;;23.02;66.48
55671;BME280;41551;47.500;8.408;2022-08-07T12:11:41;96569.84;;;23.09;65.83
55671;BME280;41551;47.500;8.408;2022-08-07T12:14:14;96556.25;;;23.14;66.07
55671;BME280;41551;47.500;8.408;2022-08-07T12:16:45;96558.94;;;23.31;64.89
55671;BME280;41551;47.500;8.408;2022-08-07T12:19:20;96556.34;;;23.61;64.41
55671;BME280;41551;47.500;8.408;2022-08-07T12:21:57;96558.97;;;23.70;64.16
55671;BME280;41551;47.500;8.408;2022-08-07T12:24:33;96557.44;;;23.60;64.29
55671;BME280;41551;47.500;8.408;2022-08-07T12:27:08;96549.59;;;23.76;62.39
55671;BME280;41551;47.500;8.408;2022-08-07T12:29:41;96542.28;;;23.94;61.54
55671;BME280;41551;47.500;8.408;2022-08-07T12:32:14;96546.66;;;24.07;60.67
55671;BME280;41551;47.500;8.408;2022-08-07T12:34:43;96540.97;;;24.30;60.44
55671;BME280;41551;47.500;8.408;2022-08-07T12:37:14;96540.66;;;24.53;59.55
55671;BME280;41551;47.500;8.408;2022-08-07T12:39:45;96539.50;;;24.62;60.17
55671;BME280;41551;47.500;8.408;2022-08-07T12:42:15;96540.31;;;24.63;59.65
55671;BME280;41551;47.500;8.408;2022-08-07T12:44:45;96534.50;;;24.73;58.83
55671;BME280;41551;47.500;8.408;2022-08-07T12:47:20;96536.19;;;24.78;59.38
55671;BME280;41551;47.500;8.408;2022-08-07T12:49:54;96530.94;;;24.81;58.21
55671;BME280;41551;47.500;8.408;2022-08-07T12:52:35;96533.97;;;25.01;57.64
55671;BME280;41551;47.500;8.408;2022-08-07T12:55:07;96533.09;;;25.22;56.81
55671;BME280;41551;47.500;8.408;2022-08-07T12:57:36;96529.81;;;25.37;55.90
55671;BME280;41551;47.500;8.408;2022-08-07T13:00:05;96528.59;;;25.47;55.23
55671;BME280;41551;47.500;8.408;2022-08-07T13:02:49;96523.53;;;25.45;55.14
55671;BME280;41551;47.500;8.408;2022-08-07T13:05:37;96514.47;;;25.29;55.13
55671;BME280;41551;47.500;8.408;2022-08-07T13:08:28;96528.28;;;25.15;55.25
55671;BME280;41551;47.500;8.408;2022-08-07T13:11:05;96533.09;;;24.88;56.50
55671;BME280;41551;47.500;8.408;2022-08-07T13:13:43;96528.97;;;24.91;56.10
55671;BME280;41551;47.500;8.408;2022-08-07T13:16:16;96532.81;;;25.02;56.34
55671;BME280;41551;47.500;8.408;2022-08-07T13:18:52;96529.72;;;25.12;56.13
55671;BME280;41551;47.500;8.408;2022-08-07T13:21:25;96524.34;;;25.25;55.72